Time;durP1;ratioP1;P1;durP2;ratioP2;P2;SDS_P1;SDS_P2;PMS_P1;PMS_P2;Temp;Humidity;BMP_temperature;BMP_pressure;BME280_temperature;BME280_humidity;BME280_pressure;Samples;Min_cycle;Max_cycle;Signal;HPM_P1;HPM_P2
2023/01/09 00:02:25;;;;;;;5.00;1.50;;;17.70;73.90;;;;;;5031412;28;20335;-73
2023/01/09 00:04:50;;;;;;;3.00;0.98;;;17.50;73.80;;;;;;5031683;28;20025;-73
2023/01/09 00:07:16;;;;;;;2.28;0.98;;;17.50;73.90;;;;;;5032599;28;20021;-73
2023/01/09 00:09:42;;;;;;;4.18;1.20;;;17.50;74.00;;;;;;5031296;28;20048;-73
2023/01/09 00:12:07;;;;;;;3.22;0.90;;;17.50;73.80;;;;;;5033573;28;20032;-74
2023/01/09 00:14:33;;;;;;;1.33;0.52;;;17.50;73.90;;;;;;5036826;28;20040;-74
2023/01/09 00:16:59;;;;;;;2.67;0.80;;;17.50;74.00;;;;;;5036707;28;20037;-74
2023/01/09 00:19:24;;;;;;;4.85;0.82;;;17.50;74.00;;;;;;5036877;28;20033;-74
2023/01/09 00:21:50;;;;;;;2.72;0.82;;;17.50;74.20;;;;;;5036926;28;20013;-74
2023/01/09 00:24:15;;;;;;;2.80;1.23;;;17.50;74.10;;;;;;5036832;28;20032;-74
2023/01/09 00:26:41;;;;;;;3.65;0.90;;;17.40;74.10;;;;;;5036438;28;20080;-74
2023/01/09 00:29:08;;;;;;;4.43;0.82;;;17.40;74.20;;;;;;5036535;28;20080;-73
2023/01/09 00:31:34;;;;;;;3.17;0.77;;;17.40;74.20;;;;;;5018898;28;20028;-74
2023/01/09 00:34:03;;;;;;;2.90;0.85;;;17.40;74.30;;;;;;5035579;28;20400;-73
2023/01/09 00:36:29;;;;;;;1.98;0.82;;;17.40;74.30;;;;;;5035285;28;20499;-73
2023/01/09 00:38:55;;;;;;;2.47;0.70;;;17.30;74.30;;;;;;5018840;28;20030;-74
2023/01/09 00:41:27;;;;;;;4.78;1.00;;;17.30;74.40;;;;;;5036393;28;20025;-73
2023/01/09 00:43:56;;;;;;;3.70;0.98;;;17.30;74.40;;;;;;5035172;28;20511;-73
2023/01/09 00:46:24;;;;;;;3.28;0.73;;;17.30;74.10;;;;;;5034649;28;20026;-73
2023/01/09 00:48:50;;;;;;;5.20;1.30;;;17.20;74.20;;;;;;5035984;28;20119;-73
2023/01/09 00:51:16;;;;;;;3.67;1.08;;;17.20;74.50;;;;;;5035081;28;20480;-73
2023/01/09 00:53:41;;;;;;;3.70;0.95;;;17.20;74.40;;;;;;5034848;28;20451;-73
2023/01/09 00:56:10;;;;;;;4.55;1.42;;;17.20;74.30;;;;;;5036156;28;20053;-73
2023/01/09 00:58:35;;;;;;;4.78;0.88;;;17.10;74.40;;;;;;5034685;28;20104;-73
2023/01/09 01:01:01;;;;;;;3.08;0.93;;;17.10;74.30;;;;;;5036170;28;20480;-73
2023/01/09 01:03:27;;;;;;;3.92;0.98;;;17.10;74.30;;;;;;5034570;28;20075;-73
2023/01/09 01:08:36;;;;;;;3.08;0.90;;;17.10;74.50;;;;;;5034852;28;20045;-73
2023/01/09 01:11:08;;;;;;;4.30;0.88;;;17.10;74.40;;;;;;5035955;28;20025;-73
2023/01/09 01:13:33;;;;;;;3.53;1.00;;;17.10;74.50;;;;;;5034609;28;20029;-73
2023/01/09 01:15:59;;;;;;;3.80;1.15;;;17.00;74.50;;;;;;5035910;28;20079;-73
2023/01/09 01:18:25;;;;;;;6.40;1.45;;;17.10;74.70;;;;;;5034501;28;20033;-73
2023/01/09 01:20:50;;;;;;;3.90;1.13;;;17.00;74.70;;;;;;5035448;28;20018;-73
2023/01/09 01:23:16;;;;;;;2.95;1.00;;;17.00;74.80;;;;;;5034224;28;20454;-73
2023/01/09 01:25:42;;;;;;;3.60;1.00;;;17.00;74.80;;;;;;5033866;28;20021;-73
2023/01/09 01:28:08;;;;;;;3.88;0.85;;;17.00;74.90;;;;;;5035480;28;20025;-73
2023/01/09 01:30:40;;;;;;;3.15;0.90;;;17.00;74.90;;;;;;5034367;28;20021;-73
2023/01/09 01:33:06;;;;;;;3.33;1.02;;;17.00;75.90;;;;;;5034290;28;20053;-73
2023/01/09 01:35:31;;;;;;;2.47;0.60;;;16.90;75.00;;;;;;5034002;28;20033;-73
2023/01/09 01:37:57;;;;;;;2.75;1.00;;;16.90;75.00;;;;;;5034228;28;20546;-73
2023/01/09 01:40:23;;;;;;;1.77;0.80;;;16.90;75.00;;;;;;5035606;28;20499;-74
2023/01/09 01:42:50;;;;;;;5.40;0.93;;;16.90;75.10;;;;;;5033879;28;20045;-74
2023/01/09 01:45:19;;;;;;;3.00;0.98;;;16.90;75.20;;;;;;5034289;28;20024;-74
2023/01/09 01:47:56;;;;;;;2.47;0.63;;;16.90;75.20;;;;;;5035112;28;20030;-74
2023/01/09 01:50:43;;;;;;;3.28;0.80;;;16.90;75.30;;;;;;5034010;28;20026;-74
2023/01/09 01:53:13;;;;;;;5.60;0.98;;;16.90;75.40;;;;;;5033980;28;20484;-73
2023/01/09 01:55:42;;;;;;;4.97;1.13;;;16.80;75.40;;;;;;5033472;28;20101;-73
2023/01/09 01:58:09;;;;;;;2.80;0.90;;;16.80;75.50;;;;;;5033560;28;20029;-73
2023/01/09 02:00:37;;;;;;;4.30;1.02;;;16.80;75.50;;;;;;5033723;28;20026;-73
2023/01/09 02:03:02;;;;;;;4.40;0.90;;;16.80;75.50;;;;;;5033662;28;20046;-74
2023/01/09 02:05:28;;;;;;;3.00;0.90;;;16.80;75.60;;;;;;5033707;28;20018;-73
2023/01/09 02:07:54;;;;;;;5.30;0.90;;;16.80;75.60;;;;;;5033361;28;20487;-73
2023/01/09 02:10:22;;;;;;;2.63;0.85;;;16.80;75.60;;;;;;5034703;28;20104;-74
2023/01/09 02:12:48;;;;;;;2.92;0.80;;;16.80;75.60;;;;;;5034588;28;20029;-73
2023/01/09 02:15:14;;;;;;;2.13;0.80;;;16.80;75.60;;;;;;5033643;28;20060;-73
2023/01/09 02:17:48;;;;;;;5.55;1.00;;;16.70;75.60;;;;;;5033219;28;20053;-73
2023/01/09 02:20:39;;;;;;;4.88;1.30;;;16.80;75.70;;;;;;5034674;28;20105;-73
2023/01/09 02:23:05;;;;;;;2.88;0.80;;;16.70;75.50;;;;;;5032835;28;20091;-73
2023/01/09 02:25:33;;;;;;;2.08;0.90;;;16.70;75.50;;;;;;5034135;28;20423;-73
2023/01/09 02:28:20;;;;;;;3.75;1.00;;;16.70;75.60;;;;;;5034485;28;20108;-74
2023/01/09 02:30:47;;;;;;;2.65;0.88;;;16.60;75.60;;;;;;5032978;28;20049;-74
2023/01/09 02:33:35;;;;;;;3.15;1.00;;;16.60;75.50;;;;;;5033357;28;20108;-73
2023/01/09 02:36:10;;;;;;;2.33;0.70;;;16.60;75.50;;;;;;5033159;28;20472;-73
2023/01/09 02:38:59;;;;;;;5.38;0.93;;;16.60;75.60;;;;;;5033108;28;20040;-73
2023/01/09 02:41:50;;;;;;;5.63;0.93;;;16.60;75.50;;;;;;5033016;28;20023;-73
2023/01/09 02:44:19;;;;;;;2.80;0.80;;;16.60;75.60;;;;;;5034411;28;20022;-73
2023/01/09 02:46:45;;;;;;;7.13;1.58;;;16.60;75.60;;;;;;5032686;28;20074;-73
2023/01/09 02:49:11;;;;;;;2.05;0.80;;;16.60;75.60;;;;;;5034261;28;20100;-73
2023/01/09 02:51:50;;;;;;;2.53;0.88;;;16.50;75.50;;;;;;5016623;28;20122;-73
2023/01/09 02:54:46;;;;;;;3.45;1.13;;;16.60;75.70;;;;;;5016680;28;20368;-73
2023/01/09 02:57:30;;;;;;;3.00;0.82;;;16.60;75.70;;;;;;5011968;28;20041;-73
2023/01/09 03:00:09;;;;;;;1.90;0.75;;;16.50;75.50;;;;;;5012095;28;20074;-73
2023/01/09 03:03:02;;;;;;;2.42;0.90;;;16.50;75.60;;;;;;4994970;28;20112;-73
2023/01/09 03:05:31;;;;;;;4.38;1.00;;;16.50;75.70;;;;;;5011713;28;20088;-73
2023/01/09 03:08:05;;;;;;;3.95;1.08;;;16.50;75.70;;;;;;5011319;28;20030;-73
2023/01/09 03:10:34;;;;;;;4.03;0.98;;;16.50;75.70;;;;;;4995422;28;20080;-73
2023/01/09 03:13:00;;;;;;;2.42;0.98;;;16.50;75.70;;;;;;5011711;28;20443;-73
2023/01/09 03:15:27;;;;;;;3.55;1.17;;;16.50;75.70;;;;;;4994226;28;20037;-73
2023/01/09 03:17:53;;;;;;;3.00;0.80;;;16.50;75.70;;;;;;4994550;28;20042;-73
2023/01/09 03:20:21;;;;;;;3.33;1.10;;;16.40;75.70;;;;;;5011643;28;20488;-74
2023/01/09 03:22:57;;;;;;;1.85;0.60;;;16.40;75.70;;;;;;4994764;28;20069;-73
2023/01/09 03:25:23;;;;;;;3.38;0.82;;;16.40;75.70;;;;;;5011319;28;20034;-73
2023/01/09 03:27:55;;;;;;;3.15;0.90;;;16.40;75.70;;;;;;5011053;28;20038;-74
2023/01/09 03:30:21;;;;;;;;;;;16.40;75.70;;;;;;4995278;28;20029;-73
2023/01/09 03:32:47;;;;;;;1.83;0.65;;;16.40;75.70;;;;;;5011310;28;20012;-74
2023/01/09 03:35:12;;;;;;;2.55;0.98;;;16.40;75.70;;;;;;5032671;28;20036;-73
2023/01/09 03:37:38;;;;;;;3.40;0.90;;;16.30;75.70;;;;;;5032613;28;20041;-73
2023/01/09 03:40:04;;;;;;;4.43;1.15;;;16.30;75.70;;;;;;5033224;28;20415;-73
2023/01/09 03:42:30;;;;;;;2.35;0.90;;;16.30;75.70;;;;;;5032992;28;20025;-73
2023/01/09 03:44:55;;;;;;;3.50;0.90;;;16.30;75.70;;;;;;5033044;28;20014;-73
2023/01/09 03:47:21;;;;;;;3.22;1.00;;;16.30;75.70;;;;;;5031248;28;20403;-73
2023/01/09 03:49:47;;;;;;;3.50;0.85;;;16.30;75.70;;;;;;5032602;28;20531;-73
2023/01/09 03:52:12;;;;;;;4.35;0.90;;;16.30;75.70;;;;;;5032817;28;20026;-73
2023/01/09 03:54:38;;;;;;;2.28;0.85;;;16.30;75.70;;;;;;5031766;28;20076;-73
2023/01/09 03:57:04;;;;;;;3.13;1.13;;;16.30;75.80;;;;;;5031537;28;20076;-73
2023/01/09 03:59:30;;;;;;;2.72;0.90;;;16.30;75.80;;;;;;5033011;28;20053;-73
2023/01/09 04:01:55;;;;;;;1.92;0.90;;;16.30;75.80;;;;;;5032709;28;20025;-73
2023/01/09 04:04:21;;;;;;;3.05;0.95;;;16.30;75.80;;;;;;5032887;28;20045;-73
2023/01/09 04:06:47;;;;;;;3.33;0.85;;;16.20;75.90;;;;;;5032281;28;20536;-73
2023/01/09 04:09:12;;;;;;;3.10;1.02;;;16.20;75.90;;;;;;5032968;28;20025;-73
2023/01/09 04:11:38;;;;;;;4.32;0.90;;;16.30;76.00;;;;;;5031270;28;20101;-73
2023/01/09 04:14:04;;;;;;;3.55;1.00;;;16.20;75.90;;;;;;5032629;28;20469;-73
2023/01/09 04:16:29;;;;;;;3.05;0.88;;;16.20;75.90;;;;;;5032773;28;20029;-73
2023/01/09 04:18:55;;;;;;;2.58;0.70;;;16.20;76.00;;;;;;5032583;28;20530;-73
2023/01/09 04:21:21;;;;;;;2.83;1.08;;;16.20;76.00;;;;;;5032503;28;20032;-73
2023/01/09 04:23:46;;;;;;;2.35;0.85;;;16.20;76.00;;;;;;5031171;28;20025;-74
2023/01/09 04:26:12;;;;;;;4.68;0.90;;;16.10;76.00;;;;;;5032636;28;20116;-74
2023/01/09 04:28:37;;;;;;;3.65;0.80;;;16.20;76.00;;;;;;5032413;28;20116;-74
2023/01/09 04:31:04;;;;;;;5.68;0.95;;;16.10;76.00;;;;;;5032768;28;20159;-73
2023/01/09 04:33:29;;;;;;;2.40;0.80;;;16.10;76.00;;;;;;5032466;28;20136;-73
2023/01/09 04:35:55;;;;;;;3.00;0.90;;;16.10;76.00;;;;;;5032320;28;20049;-73
2023/01/09 04:38:21;;;;;;;3.00;0.75;;;16.10;76.00;;;;;;5032323;28;20536;-73
2023/01/09 04:40:47;;;;;;;2.42;0.70;;;16.10;76.20;;;;;;5014904;28;20452;-73
2023/01/09 04:43:13;;;;;;;3.03;1.15;;;16.10;76.10;;;;;;5031194;28;20018;-73
2023/01/09 04:45:38;;;;;;;4.40;1.10;;;16.10;76.10;;;;;;5014432;28;20100;-73
2023/01/09 04:48:04;;;;;;;4.72;0.90;;;16.10;76.10;;;;;;5032436;28;20063;-73
2023/01/09 04:50:30;;;;;;;2.65;1.05;;;16.00;76.00;;;;;;5032384;28;20093;-73
2023/01/09 04:52:56;;;;;;;2.13;0.70;;;16.00;76.10;;;;;;5014509;28;20349;-74
2023/01/09 04:55:22;;;;;;;2.20;0.93;;;16.00;76.10;;;;;;5030945;28;20021;-74
2023/01/09 04:57:47;;;;;;;1.38;0.80;;;16.10;76.20;;;;;;5030934;28;20029;-74
2023/01/09 05:00:13;;;;;;;3.22;1.00;;;16.00;76.10;;;;;;5034500;28;20025;-74
2023/01/09 05:02:40;;;;;;;2.97;0.93;;;16.00;76.10;;;;;;5034491;28;20053;-74
2023/01/09 05:05:07;;;;;;;7.38;0.88;;;16.00;76.10;;;;;;5034713;28;20032;-74
2023/01/09 05:07:33;;;;;;;1.58;0.50;;;16.00;76.20;;;;;;5034225;28;20104;-74
2023/01/09 05:09:58;;;;;;;3.50;0.73;;;16.00;76.20;;;;;;5034413;28;20097;-74
2023/01/09 05:12:24;;;;;;;4.38;1.40;;;16.00;76.20;;;;;;5034654;28;20464;-74
2023/01/09 05:14:50;;;;;;;2.47;0.73;;;16.00;76.20;;;;;;5035629;28;20468;-74
2023/01/09 05:17:15;;;;;;;1.83;0.80;;;16.00;76.20;;;;;;5035923;28;20488;-74
2023/01/09 05:19:41;;;;;;;3.75;0.73;;;15.90;76.30;;;;;;5035557;28;20407;-73
2023/01/09 05:22:07;;;;;;;2.08;0.80;;;15.90;76.20;;;;;;5034233;28;20464;-74
2023/01/09 05:24:33;;;;;;;4.45;1.08;;;15.90;76.20;;;;;;5035687;28;20155;-73
2023/01/09 05:26:58;;;;;;;2.20;0.70;;;16.00;76.30;;;;;;5034952;28;20033;-73
2023/01/09 05:29:24;;;;;;;2.08;0.88;;;15.90;76.30;;;;;;5035406;28;20372;-73
2023/01/09 05:31:51;;;;;;;4.07;1.10;;;15.90;76.30;;;;;;5035414;28;20036;-73
2023/01/09 05:34:17;;;;;;;3.95;0.98;;;15.90;76.20;;;;;;5035295;28;20029;-73
2023/01/09 05:36:42;;;;;;;2.83;1.00;;;15.90;76.20;;;;;;5035393;28;20080;-73
2023/01/09 05:39:08;;;;;;;2.80;1.00;;;15.90;76.20;;;;;;5035261;28;20036;-73
2023/01/09 05:41:34;;;;;;;3.60;0.90;;;15.90;76.20;;;;;;5035385;28;20026;-73
2023/01/09 05:43:59;;;;;;;4.13;0.93;;;15.90;76.20;;;;;;5035183;28;20022;-73
2023/01/09 05:46:25;;;;;;;3.25;0.73;;;15.90;76.20;;;;;;5034705;28;20087;-73
2023/01/09 05:48:50;;;;;;;4.78;0.82;;;15.80;75.80;;;;;;5034910;28;20025;-73
2023/01/09 05:51:16;;;;;;;2.65;0.90;;;15.80;75.90;;;;;;5033729;28;20160;-73
2023/01/09 05:53:42;;;;;;;3.22;0.93;;;15.80;75.90;;;;;;5033878;28;20555;-73
2023/01/09 05:56:07;;;;;;;1.98;0.63;;;15.80;75.90;;;;;;5013836;28;20064;-73
2023/01/09 05:58:33;;;;;;;3.08;1.10;;;15.80;76.00;;;;;;5013835;28;20040;-73
2023/01/09 06:00:58;;;;;;;1.92;0.70;;;15.80;76.00;;;;;;5013844;28;20033;-73
2023/01/09 06:03:24;;;;;;;3.53;0.90;;;15.70;76.00;;;;;;5013496;28;20053;-73
2023/01/09 06:05:50;;;;;;;2.22;0.88;;;15.80;76.00;;;;;;5014905;28;20029;-73
2023/01/09 06:08:16;;;;;;;2.08;0.77;;;15.70;76.00;;;;;;5015005;28;20022;-74
2023/01/09 06:10:42;;;;;;;3.70;0.80;;;15.70;75.90;;;;;;5014720;28;20400;-73
2023/01/09 06:13:07;;;;;;;2.22;0.88;;;15.70;75.90;;;;;;5014920;28;20064;-74
2023/01/09 06:15:33;;;;;;;2.50;0.93;;;15.70;76.00;;;;;;5014963;28;20030;-74
2023/01/09 06:17:58;;;;;;;2.20;0.60;;;15.70;75.90;;;;;;5013236;28;20033;-74
2023/01/09 06:20:24;;;;;;;2.28;1.00;;;15.70;75.90;;;;;;5013575;28;20026;-74
2023/01/09 06:22:51;;;;;;;2.78;0.70;;;15.70;76.00;;;;;;5014007;28;20067;-73
2023/01/09 06:25:17;;;;;;;3.15;0.75;;;15.70;76.00;;;;;;5012387;28;20026;-74
2023/01/09 06:27:43;;;;;;;3.25;0.93;;;15.70;76.20;;;;;;5014356;28;20030;-73
2023/01/09 06:30:09;;;;;;;1.70;0.60;;;15.70;76.30;;;;;;5013599;28;20365;-73
2023/01/09 06:32:35;;;;;;;2.90;0.90;;;15.70;76.40;;;;;;5013398;28;20018;-73
2023/01/09 06:35:01;;;;;;;4.50;1.20;;;15.70;76.40;;;;;;5013189;28;20037;-73
2023/01/09 06:37:27;;;;;;;2.60;0.70;;;15.70;76.10;;;;;;5013613;28;20018;-73
2023/01/09 06:39:53;;;;;;;2.95;0.73;;;15.70;76.30;;;;;;5013173;28;20083;-73
2023/01/09 06:42:19;;;;;;;2.15;0.82;;;15.60;76.30;;;;;;5013328;28;20076;-73
2023/01/09 06:44:45;;;;;;;4.32;1.25;;;15.60;76.30;;;;;;5012028;28;20072;-73
2023/01/09 06:47:10;;;;;;;4.90;1.00;;;15.60;76.30;;;;;;5026082;28;20036;-74
2023/01/09 06:49:36;;;;;;;2.70;0.77;;;15.60;76.40;;;;;;5033570;28;20037;-74
2023/01/09 06:52:04;;;;;;;3.83;0.90;;;15.60;76.50;;;;;;5033181;28;20404;-74
2023/01/09 06:54:30;;;;;;;3.97;0.98;;;15.60;76.50;;;;;;5032842;28;20251;-73
2023/01/09 06:56:55;;;;;;;3.50;0.80;;;15.60;76.50;;;;;;5031521;28;20559;-73
2023/01/09 06:59:21;;;;;;;3.28;0.68;;;15.60;76.50;;;;;;5031807;28;20879;-74
2023/01/09 07:01:47;;;;;;;2.75;0.80;;;15.60;76.50;;;;;;5032700;28;20025;-73
2023/01/09 07:04:12;;;;;;;2.65;0.73;;;15.60;76.50;;;;;;5032595;28;20044;-73
2023/01/09 07:06:38;;;;;;;2.90;0.90;;;15.60;76.50;;;;;;5031425;28;20013;-74
2023/01/09 07:09:07;;;;;;;3.03;1.00;;;15.50;76.40;;;;;;5032386;28;20025;-74
2023/01/09 07:11:32;;;;;;;2.90;0.93;;;15.50;76.30;;;;;;5032771;28;20033;-73
2023/01/09 07:13:58;;;;;;;2.50;0.70;;;15.60;76.30;;;;;;5031662;28;20026;-73
2023/01/09 07:16:24;;;;;;;2.72;0.70;;;15.50;76.30;;;;;;5032282;28;20029;-73
2023/01/09 07:18:51;;;;;;;3.42;1.00;;;15.50;76.40;;;;;;5031264;28;20029;-74
2023/01/09 07:21:16;;;;;;;1.83;0.60;;;15.50;76.50;;;;;;5032179;28;20569;-73
2023/01/09 07:23:42;;;;;;;2.95;1.05;;;15.50;76.40;;;;;;5030814;28;20057;-73
2023/01/09 07:26:08;;;;;;;3.80;0.90;;;15.50;76.50;;;;;;5032342;28;20025;-73
2023/01/09 07:28:34;;;;;;;3.90;0.93;;;15.50;76.40;;;;;;5032370;28;20079;-73
2023/01/09 07:31:03;;;;;;;2.38;0.80;;;15.50;76.40;;;;;;5030904;28;20477;-73
2023/01/09 07:33:29;;;;;;;2.92;0.90;;;15.50;76.20;;;;;;5032628;28;20017;-73
2023/01/09 07:35:54;;;;;;;3.38;0.80;;;15.50;76.20;;;;;;5031165;28;20364;-73
2023/01/09 07:38:20;;;;;;;3.42;0.90;;;15.40;76.00;;;;;;5031302;28;20037;-73
2023/01/09 07:40:46;;;;;;;2.58;0.80;;;15.50;76.00;;;;;;5032276;28;20025;-73
2023/01/09 07:43:11;;;;;;;4.05;0.80;;;15.40;75.90;;;;;;5032326;28;20368;-73
2023/01/09 07:45:37;;;;;;;4.53;0.70;;;15.40;75.90;;;;;;5031894;28;20021;-72
2023/01/09 07:48:03;;;;;;;5.93;1.63;;;15.40;75.90;;;;;;5032328;28;20053;-73
2023/01/09 07:50:28;;;;;;;6.55;0.98;;;15.40;75.80;;;;;;5032618;28;20045;-73
2023/01/09 07:52:54;;;;;;;4.60;1.17;;;15.40;75.90;;;;;;5031104;28;20480;-73
2023/01/09 07:55:20;;;;;;;4.07;1.35;;;15.40;75.80;;;;;;5032291;28;20104;-73
2023/01/09 07:57:49;;;;;;;6.55;1.60;;;15.40;75.90;;;;;;5030788;28;20033;-73
2023/01/09 08:00:15;;;;;;;13.65;1.60;;;15.40;75.90;;;;;;5030153;28;20067;-73
2023/01/09 08:02:40;;;;;;;9.68;2.45;;;15.40;76.00;;;;;;5031018;28;20049;-73
2023/01/09 08:05:07;;;;;;;9.07;2.40;;;15.40;76.10;;;;;;5029445;28;20484;-73
2023/01/09 08:07:33;;;;;;;9.65;2.10;;;15.30;76.00;;;;;;5032305;28;20029;-73
2023/01/09 08:09:59;;;;;;;10.90;2.20;;;15.40;76.10;;;;;;5032110;28;20018;-73
2023/01/09 08:12:25;;;;;;;10.93;2.22;;;15.30;76.10;;;;;;5031058;28;20530;-73
2023/01/09 08:14:51;;;;;;;8.65;2.08;;;15.30;76.10;;;;;;5032066;28;20408;-73
2023/01/09 08:17:16;;;;;;;7.88;1.98;;;15.30;76.10;;;;;;5032485;28;20104;-73
2023/01/09 08:19:42;;;;;;;7.97;1.98;;;15.30;76.20;;;;;;5032208;28;20029;-73
2023/01/09 08:22:08;;;;;;;11.25;2.35;;;15.30;76.30;;;;;;5019778;28;20037;-73
2023/01/09 08:24:35;;;;;;;10.55;3.05;;;15.30;76.20;;;;;;5011497;28;20022;-73
2023/01/09 08:27:01;;;;;;;13.85;3.05;;;15.30;76.20;;;;;;5011089;28;20435;-73
2023/01/09 08:29:29;;;;;;;13.60;2.90;;;15.30;76.30;;;;;;5012170;28;20033;-73
2023/01/09 08:31:54;;;;;;;11.73;2.65;;;15.20;75.90;;;;;;5012570;28;20037;-73
2023/01/09 08:34:20;;;;;;;9.23;2.55;;;15.20;76.20;;;;;;5014934;28;20025;-73
2023/01/09 08:36:46;;;;;;;14.52;2.53;;;15.20;76.20;;;;;;5016272;28;20041;-73
2023/01/09 08:39:11;;;;;;;11.23;2.20;;;15.20;76.10;;;;;;5028008;28;20029;-73
2023/01/09 08:47:05;;;;;;;10.95;2.47;;;15.20;76.10;;;;;;5034714;28;20083;-73
2023/01/09 08:49:32;;;;;;;9.48;2.25;;;15.20;76.10;;;;;;5034633;28;20025;-73
2023/01/09 08:51:58;;;;;;;10.25;2.60;;;15.20;76.00;;;;;;5018172;28;20065;-73
2023/01/09 08:54:23;;;;;;;7.00;2.17;;;15.10;76.10;;;;;;5035635;28;20060;-73
2023/01/09 08:56:49;;;;;;;9.65;2.70;;;15.20;76.10;;;;;;5035539;28;20476;-73
2023/01/09 08:59:15;;;;;;;12.63;2.53;;;15.10;76.00;;;;;;5035584;28;20029;-73
2023/01/09 09:01:41;;;;;;;11.55;2.47;;;15.10;76.10;;;;;;5034379;28;20029;-73
2023/01/09 09:04:06;;;;;;;9.48;2.50;;;15.10;76.10;;;;;;5035491;28;20050;-73
2023/01/09 09:06:32;;;;;;;8.90;2.65;;;15.10;76.20;;;;;;5035494;28;20048;-73
2023/01/09 09:09:02;;;;;;;11.73;3.40;;;15.10;76.10;;;;;;5034487;28;20033;-73
2023/01/09 09:11:29;;;;;;;7.88;2.03;;;15.10;76.10;;;;;;5034000;28;20049;-73
2023/01/09 09:13:55;;;;;;;8.25;2.25;;;15.10;76.10;;;;;;5017575;28;20030;-73
2023/01/09 09:16:21;;;;;;;10.88;2.70;;;15.10;76.10;;;;;;5015590;28;20033;-73
2023/01/09 09:18:47;;;;;;;11.52;2.90;;;15.10;76.10;;;;;;5015602;28;20022;-73
2023/01/09 09:21:12;;;;;;;8.13;2.60;;;15.10;76.10;;;;;;5015511;28;20029;-73
2023/01/09 09:23:38;;;;;;;10.73;2.33;;;15.00;76.00;;;;;;5015441;28;20029;-73
2023/01/09 09:26:04;;;;;;;7.47;2.42;;;15.00;76.10;;;;;;5015147;28;20028;-73
2023/01/09 09:28:29;;;;;;;7.05;2.65;;;15.00;76.00;;;;;;5014287;28;20446;-73
2023/01/09 09:30:55;;;;;;;7.15;2.30;;;15.00;76.00;;;;;;5015361;28;20037;-73
2023/01/09 09:33:21;;;;;;;10.10;2.90;;;15.00;76.10;;;;;;5015228;28;20133;-73
2023/01/09 09:35:46;;;;;;;6.03;2.35;;;15.00;76.10;;;;;;5015273;28;20408;-73
2023/01/09 09:38:12;;;;;;;10.75;2.90;;;15.00;76.20;;;;;;5015130;28;20400;-73
2023/01/09 09:40:53;;;;;;;8.30;2.42;;;15.00;76.10;;;;;;5014970;28;20161;-73
2023/01/09 09:46:37;;;;;;;6.82;2.15;;;14.90;76.00;;;;;;5018714;28;20163;-73
2023/01/09 09:49:13;;;;;;;6.85;2.05;;;15.00;76.10;;;;;;5034671;28;20033;-73
2023/01/09 09:51:45;;;;;;;8.32;2.38;;;14.90;76.00;;;;;;5033483;28;20029;-73
2023/01/09 09:54:19;;;;;;;8.40;2.35;;;14.90;76.10;;;;;;5034489;28;20075;-73
2023/01/09 09:56:55;;;;;;;12.50;2.45;;;14.90;76.10;;;;;;5033500;28;20021;-73
2023/01/09 09:59:23;;;;;;;7.70;2.42;;;14.90;76.10;;;;;;5033244;28;20580;-73
2023/01/09 10:02:03;;;;;;;7.32;2.17;;;14.90;76.10;;;;;;5033298;28;20028;-73
2023/01/09 10:04:31;;;;;;;5.70;1.98;;;14.90;76.10;;;;;;5033212;28;20598;-73
2023/01/09 10:07:05;;;;;;;6.32;1.95;;;14.90;76.10;;;;;;5033312;28;20472;-73
2023/01/09 10:09:57;;;;;;;6.38;1.70;;;14.90;76.10;;;;;;5033116;28;20480;-73
2023/01/09 10:12:33;;;;;;;5.15;2.00;;;14.90;76.10;;;;;;5028682;28;20022;-73
2023/01/09 10:15:01;;;;;;;4.78;1.63;;;14.80;76.10;;;;;;5013324;28;20037;-73
2023/01/09 10:17:44;;;;;;;6.65;1.90;;;14.80;76.20;;;;;;5013130;28;20021;-73
2023/01/09 10:20:28;;;;;;;;;;;14.80;76.20;;;;;;5013585;28;20026;-73
2023/01/09 10:23:03;;;;;;;8.13;2.33;;;14.80;76.00;;;;;;5014424;28;19960;-73
2023/01/09 10:25:28;;;;;;;7.20;2.33;;;14.80;76.30;;;;;;5014082;28;20028;-73
2023/01/09 10:28:06;;;;;;;6.38;2.40;;;14.80;76.30;;;;;;5014221;28;20108;-73
2023/01/09 10:30:37;;;;;;;5.50;1.80;;;14.80;76.30;;;;;;5014197;28;20026;-73
2023/01/09 10:33:13;;;;;;;6.47;1.50;;;14.80;76.30;;;;;;5014548;28;20034;-73
2023/01/09 10:35:58;;;;;;;8.07;2.03;;;14.80;76.30;;;;;;5013014;28;20049;-73
2023/01/09 10:38:32;;;;;;;6.30;1.73;;;14.80;76.30;;;;;;5013509;28;20030;-73
2023/01/09 10:41:07;;;;;;;6.15;2.10;;;14.80;76.20;;;;;;5012886;28;20330;-73
2023/01/09 10:43:48;;;;;;;5.50;1.92;;;14.70;76.30;;;;;;4996999;28;20026;-73
2023/01/09 10:46:22;;;;;;;7.28;1.77;;;14.70;76.40;;;;;;5018899;28;20096;-73
2023/01/09 10:48:51;;;;;;;5.95;1.80;;;14.70;76.40;;;;;;5033674;28;20048;-73
2023/01/09 10:52:00;;;;;;;7.63;2.10;;;14.70;76.40;;;;;;5032465;28;20496;-73
2023/01/09 10:54:27;;;;;;;5.93;1.40;;;14.70;76.40;;;;;;5031813;28;20045;-73
2023/01/09 10:56:56;;;;;;;6.68;1.60;;;14.70;76.40;;;;;;5031270;28;20017;-73
2023/01/09 10:59:23;;;;;;;7.00;1.90;;;14.70;76.40;;;;;;5032207;28;20029;-73
2023/01/09 11:01:48;;;;;;;6.15;1.60;;;14.70;76.50;;;;;;5032423;28;20044;-73
2023/01/09 11:04:33;;;;;;;4.30;1.40;;;14.70;76.50;;;;;;5031776;28;20504;-73
2023/01/09 11:07:00;;;;;;;7.25;1.70;;;14.70;76.50;;;;;;5031694;28;20467;-73
2023/01/09 11:09:26;;;;;;;3.63;1.35;;;14.70;76.60;;;;;;5032018;28;20025;-73
2023/01/09 11:11:51;;;;;;;4.22;1.45;;;14.70;76.60;;;;;;5033261;28;20503;-73
2023/01/09 11:14:26;;;;;;;6.85;1.80;;;14.70;76.50;;;;;;5013370;28;20124;-73
2023/01/09 11:17:01;;;;;;;4.88;1.55;;;14.70;76.60;;;;;;5012222;28;20026;-73
2023/01/09 11:19:27;;;;;;;4.43;1.60;;;14.60;76.40;;;;;;5013171;28;20030;-73
2023/01/09 11:22:15;;;;;;;7.30;1.63;;;14.60;76.60;;;;;;5013189;28;20370;-73
2023/01/09 11:24:41;;;;;;;8.55;1.65;;;14.60;76.50;;;;;;5011950;28;20400;-73
2023/01/09 11:27:13;;;;;;;5.20;1.88;;;14.60;76.50;;;;;;4995729;28;20022;-73
2023/01/09 11:29:42;;;;;;;6.35;1.92;;;14.60;76.50;;;;;;5013163;28;20030;-73
2023/01/09 11:32:23;;;;;;;5.70;2.00;;;14.60;76.50;;;;;;5011862;28;20079;-73
2023/01/09 11:34:48;;;;;;;7.00;1.88;;;14.60;76.60;;;;;;5013259;28;20042;-73
2023/01/09 11:37:21;;;;;;;4.03;1.90;;;14.60;76.60;;;;;;5011648;28;20030;-73
2023/01/09 11:39:47;;;;;;;5.15;1.40;;;14.60;76.60;;;;;;5011935;28;20025;-73
2023/01/09 11:45:20;;;;;;;7.07;1.58;;;14.60;76.40;;;;;;5012247;28;20512;-73
2023/01/09 11:47:46;;;;;;;5.85;1.50;;;14.50;77.50;;;;;;5029371;28;20025;-73
2023/01/09 11:50:19;;;;;;;3.97;1.30;;;14.50;76.40;;;;;;5031123;28;20029;-73
2023/01/09 11:52:45;;;;;;;6.15;1.52;;;14.50;76.50;;;;;;5031511;28;20104;-73
2023/01/09 11:55:14;;;;;;;3.60;1.25;;;14.50;76.50;;;;;;5031471;28;20072;-73
2023/01/09 11:57:40;;;;;;;5.72;1.55;;;14.50;76.40;;;;;;5030987;28;20028;-73
2023/01/09 12:00:36;;;;;;;4.15;1.30;;;14.50;76.50;;;;;;5031211;28;20087;-73
2023/01/09 12:03:37;;;;;;;5.13;1.52;;;14.50;76.50;;;;;;5030889;28;20075;-73
2023/01/09 12:06:29;;;;;;;4.45;1.38;;;14.50;76.60;;;;;;5030000;28;20107;-73
2023/01/09 12:08:58;;;;;;;4.88;1.38;;;14.50;76.60;;;;;;5024649;28;20519;-73
2023/01/09 12:11:40;;;;;;;6.50;1.48;;;14.50;76.50;;;;;;4997802;28;20048;-73
2023/01/09 12:14:35;;;;;;;4.47;1.42;;;14.50;76.50;;;;;;4995978;28;20408;-73
2023/01/09 12:17:28;;;;;;;8.90;1.80;;;14.50;76.50;;;;;;4995685;28;20130;-73
2023/01/09 12:20:03;;;;;;;4.63;1.50;;;14.50;76.50;;;;;;4993831;28;20488;-73
2023/01/09 12:22:44;;;;;;;5.35;1.55;;;14.50;76.70;;;;;;4993841;28;20102;-73
2023/01/09 12:25:51;;;;;;;5.70;1.38;;;14.50;76.70;;;;;;5010538;28;20034;-73
2023/01/09 12:28:38;;;;;;;5.70;1.70;;;14.50;76.70;;;;;;5010064;28;20109;-73
2023/01/09 12:31:42;;;;;;;5.22;1.30;;;14.50;76.50;;;;;;4993910;28;20050;-73
2023/01/09 12:34:14;;;;;;;4.07;1.42;;;14.50;76.60;;;;;;5010085;28;20062;-73
2023/01/09 12:36:46;;;;;;;4.25;1.50;;;14.40;76.60;;;;;;5010287;28;20812;-73
2023/01/09 12:39:29;;;;;;;6.60;1.38;;;14.40;76.80;;;;;;4993909;28;20084;-73
2023/01/09 12:41:58;;;;;;;;;;;14.50;76.60;;;;;;4994466;28;20112;-73
2023/01/09 12:44:36;;;;;;;4.32;1.10;;;14.40;76.50;;;;;;5012072;28;19906;-73
2023/01/09 12:47:15;;;;;;;4.97;1.42;;;14.40;76.50;;;;;;5023933;28;20052;-73
2023/01/09 12:50:18;;;;;;;4.88;1.15;;;14.40;76.60;;;;;;5031608;28;20037;-73
2023/01/09 12:53:09;;;;;;;5.63;1.38;;;14.40;76.50;;;;;;5032094;28;20105;-73
2023/01/09 12:55:42;;;;;;;4.60;1.40;;;14.40;76.50;;;;;;5027095;28;20041;-73
2023/01/09 12:58:19;;;;;;;4.18;1.40;;;14.40;76.50;;;;;;5030635;28;20022;-73
2023/01/09 13:00:46;;;;;;;4.68;1.33;;;14.40;76.60;;;;;;5030724;28;20025;-73
2023/01/09 13:03:14;;;;;;;5.30;1.52;;;14.40;76.60;;;;;;5030305;28;20188;-73
2023/01/09 13:05:46;;;;;;;3.47;1.20;;;14.40;76.50;;;;;;5030677;28;20053;-73
2023/01/09 13:08:30;;;;;;;4.72;1.42;;;14.40;76.70;;;;;;5014256;28;20018;-73
2023/01/09 13:11:16;;;;;;;4.68;1.83;;;14.40;76.60;;;;;;5030750;28;20028;-73
2023/01/09 13:13:51;;;;;;;5.03;1.42;;;14.40;76.60;;;;;;5016749;28;20045;-73
2023/01/09 13:16:29;;;;;;;3.67;1.30;;;14.40;76.70;;;;;;5010907;28;20101;-73